Time;durP1;ratioP1;P1;durP2;ratioP2;P2;SDS_P1;SDS_P2;PMS_P1;PMS_P2;Temp;Humidity;BMP_temperature;BMP_pressure;BME280_temperature;BME280_humidity;BME280_pressure;Samples;Min_cycle;Max_cycle;Signal;HPM_P1;HPM_P2
2021/10/02 00:47:04;;;;;;;5.88;3.10;;;11.70;99.90;;;;;;5063871;28;20039;-76
2021/10/02 00:49:30;;;;;;;4.30;3.25;;;11.60;99.90;;;;;;5061239;28;20091;-76
2021/10/02 00:51:55;;;;;;;4.25;3.67;;;11.70;99.90;;;;;;5023171;28;20375;-75
2021/10/02 00:54:21;;;;;;;4.30;3.72;;;11.50;99.90;;;;;;5025290;28;20064;-74
2021/10/02 00:56:47;;;;;;;3.95;3.40;;;11.60;99.90;;;;;;5028948;28;20021;-74
2021/10/02 00:59:12;;;;;;;7.00;4.00;;;11.50;99.90;;;;;;5027377;28;20471;-75
2021/10/02 01:01:51;;;;;;;6.18;3.65;;;11.40;99.90;;;;;;5040091;28;20033;-74
2021/10/02 01:04:55;;;;;;;4.72;3.63;;;11.40;99.90;;;;;;5040090;28;20032;-76
2021/10/02 01:07:40;;;;;;;4.38;3.75;;;11.30;99.90;;;;;;5015306;28;20022;-77
2021/10/02 01:10:47;;;;;;;6.03;5.25;;;11.40;99.90;;;;;;5019366;28;20033;-76
2021/10/02 01:13:26;;;;;;;21.73;12.70;;;11.30;99.90;;;;;;4994173;28;20571;-74
2021/10/02 01:16:32;;;;;;;17.80;11.55;;;11.40;99.90;;;;;;5039950;28;20033;-74
2021/10/02 01:19:20;;;;;;;7.30;5.10;;;11.40;99.90;;;;;;4933953;29;20394;-75
2021/10/02 01:21:51;;;;;;;4.47;4.00;;;11.20;99.90;;;;;;4937259;29;20469;-74
2021/10/02 01:24:29;;;;;;;5.85;4.40;;;11.10;99.90;;;;;;5010743;28;20025;-74
2021/10/02 01:27:16;;;;;;;4.90;3.67;;;11.10;99.90;;;;;;5041325;28;20083;-74
2021/10/02 01:29:43;;;;;;;6.03;3.95;;;11.10;99.90;;;;;;5020501;28;20057;-74
2021/10/02 01:32:23;;;;;;;4.55;4.13;;;11.20;99.90;;;;;;5031318;28;20025;-74
2021/10/02 01:37:56;;;;;;;4.30;3.90;;;10.80;99.90;;;;;;5045805;28;20033;-75
2021/10/02 01:48:43;;;;;;;6.38;4.63;;;10.70;99.90;;;;;;5038952;28;20049;-77
2021/10/02 01:51:11;;;;;;;4.68;4.28;;;10.80;99.90;;;;;;5040778;28;20025;-74
2021/10/02 01:53:38;;;;;;;4.90;4.40;;;10.80;99.90;;;;;;5046251;28;20079;-74
2021/10/02 01:56:06;;;;;;;6.88;4.57;;;10.90;99.90;;;;;;5044935;28;20098;-74
2021/10/02 01:58:33;;;;;;;5.13;4.18;;;10.90;99.90;;;;;;5021456;28;20028;-75
2021/10/02 02:00:59;;;;;;;5.22;4.55;;;11.00;99.90;;;;;;5022977;28;20423;-74
2021/10/02 02:03:26;;;;;;;5.18;4.25;;;10.90;99.90;;;;;;5046640;28;20056;-76
2021/10/02 02:05:53;;;;;;;6.43;4.55;;;10.90;99.90;;;;;;5045531;28;20032;-74
2021/10/02 02:08:21;;;;;;;6.50;4.60;;;11.00;99.90;;;;;;5033681;28;20476;-75
2021/10/02 02:10:47;;;;;;;8.07;4.80;;;11.30;99.90;;;;;;5045742;28;20032;-75
2021/10/02 02:13:15;;;;;;;6.45;4.90;;;11.00;99.90;;;;;;5045747;28;20033;-76
2021/10/02 02:15:42;;;;;;;8.15;4.93;;;10.90;99.90;;;;;;5045229;28;20037;-75
2021/10/02 02:18:17;;;;;;;6.30;5.05;;;10.80;99.90;;;;;;5045030;28;20075;-76
2021/10/02 02:20:47;;;;;;;5.63;5.03;;;10.80;99.90;;;;;;5045129;28;20107;-76
2021/10/02 02:23:13;;;;;;;5.60;5.00;;;10.70;99.90;;;;;;5040088;28;20025;-76
2021/10/02 02:25:40;;;;;;;6.47;4.95;;;10.80;99.90;;;;;;5038650;28;20033;-75
2021/10/02 02:28:07;;;;;;;6.68;5.40;;;10.70;99.90;;;;;;5018495;28;20037;-74
2021/10/02 02:30:34;;;;;;;6.50;5.03;;;10.70;99.90;;;;;;5028941;28;20501;-76
2021/10/02 02:33:02;;;;;;;9.77;4.65;;;10.70;99.90;;;;;;5041125;28;20021;-76
2021/10/02 02:35:28;;;;;;;6.22;5.55;;;10.70;99.90;;;;;;5036850;28;20483;-75
2021/10/02 02:37:54;;;;;;;5.80;5.20;;;10.80;99.90;;;;;;5031459;28;20112;-73
2021/10/02 02:40:21;;;;;;;7.60;5.70;;;10.80;99.90;;;;;;5031558;28;20757;-76
2021/10/02 02:42:47;;;;;;;6.15;4.78;;;10.90;99.90;;;;;;5040241;28;20033;-74
2021/10/02 02:45:14;;;;;;;7.97;5.22;;;10.90;99.90;;;;;;5046944;28;20027;-75
2021/10/02 02:47:55;;;;;;;6.72;5.40;;;11.00;99.90;;;;;;5024457;28;20079;-75
2021/10/02 02:50:58;;;;;;;8.52;5.50;;;11.10;99.90;;;;;;5018265;28;20028;-74
2021/10/02 02:53:47;;;;;;;7.72;5.97;;;11.20;99.90;;;;;;5020149;28;20025;-75
2021/10/02 02:56:40;;;;;;;9.75;5.50;;;11.20;99.90;;;;;;5038376;28;20479;-75
2021/10/02 02:59:21;;;;;;;7.55;5.53;;;11.00;99.90;;;;;;5031441;28;20029;-75
2021/10/02 03:01:50;;;;;;;5.93;5.32;;;11.00;99.90;;;;;;5045584;28;20043;-74
2021/10/02 03:04:18;;;;;;;7.88;5.40;;;11.00;99.90;;;;;;5040767;28;20090;-74
2021/10/02 03:06:48;;;;;;;6.75;5.60;;;10.80;99.90;;;;;;5037736;28;20391;-74
2021/10/02 03:09:15;;;;;;;7.50;6.07;;;10.80;99.90;;;;;;5051139;28;20037;-75
2021/10/02 03:11:46;;;;;;;7.30;5.72;;;10.80;99.90;;;;;;5044558;28;20021;-74
2021/10/02 03:14:14;;;;;;;6.40;5.68;;;10.80;99.90;;;;;;5029534;28;20029;-74
2021/10/02 03:16:41;;;;;;;8.05;5.65;;;10.80;99.90;;;;;;5042410;28;20021;-74
2021/10/02 03:19:08;;;;;;;7.55;6.50;;;10.80;99.90;;;;;;5022832;28;20056;-74
2021/10/02 03:21:35;;;;;;;7.57;5.80;;;10.80;99.90;;;;;;5042232;28;20432;-74
2021/10/02 03:24:02;;;;;;;7.75;5.90;;;10.90;99.90;;;;;;5041279;28;20510;-74
2021/10/02 03:26:29;;;;;;;6.57;5.95;;;10.90;99.90;;;;;;5046927;28;20048;-74
2021/10/02 03:28:56;;;;;;;7.97;6.22;;;11.00;99.90;;;;;;5030338;28;20110;-73
2021/10/02 03:31:22;;;;;;;8.68;6.05;;;11.10;99.90;;;;;;5034429;28;20057;-74
2021/10/02 03:33:50;;;;;;;10.75;6.60;;;11.10;99.90;;;;;;5029992;28;20020;-74
2021/10/02 03:36:15;;;;;;;7.35;6.63;;;10.90;99.90;;;;;;5024964;28;20036;-74
2021/10/02 03:38:42;;;;;;;7.43;6.10;;;10.80;99.90;;;;;;5041172;28;20033;-74
2021/10/02 03:41:09;;;;;;;7.97;5.93;;;10.80;99.90;;;;;;5046129;28;20715;-74
2021/10/02 03:43:36;;;;;;;8.75;6.28;;;10.90;99.90;;;;;;5051468;28;20021;-74
2021/10/02 03:46:02;;;;;;;11.02;6.63;;;10.80;99.90;;;;;;5047228;28;20090;-74
2021/10/02 03:48:28;;;;;;;6.55;5.93;;;10.90;99.90;;;;;;5020799;28;20109;-74
2021/10/02 03:50:54;;;;;;;8.32;5.72;;;11.00;99.90;;;;;;5034250;28;20026;-74
2021/10/02 03:53:20;;;;;;;7.32;5.88;;;11.10;99.90;;;;;;5029818;28;20029;-74
2021/10/02 03:55:46;;;;;;;8.02;6.10;;;11.00;99.90;;;;;;5042939;28;20033;-74
2021/10/02 03:58:12;;;;;;;8.90;6.10;;;10.90;99.90;;;;;;5040629;28;20100;-75
2021/10/02 04:00:37;;;;;;;6.45;5.65;;;10.80;99.90;;;;;;5045112;28;20021;-75
2021/10/02 04:03:03;;;;;;;7.97;6.18;;;10.70;99.90;;;;;;5036122;28;20124;-75
2021/10/02 04:05:28;;;;;;;7.85;6.35;;;10.70;99.90;;;;;;5045182;28;20145;-74
2021/10/02 04:07:54;;;;;;;10.15;6.50;;;10.80;99.90;;;;;;5033987;28;20029;-74
2021/10/02 04:10:19;;;;;;;8.18;6.40;;;10.90;99.90;;;;;;5033988;28;20123;-74
2021/10/02 04:12:45;;;;;;;9.15;6.60;;;11.10;99.90;;;;;;5047176;28;20112;-74
2021/10/02 04:15:11;;;;;;;7.68;6.32;;;11.10;99.90;;;;;;5042062;28;20128;-74
2021/10/02 04:17:36;;;;;;;10.02;6.55;;;11.20;99.90;;;;;;5040397;28;20435;-74
2021/10/02 04:20:04;;;;;;;11.10;6.75;;;11.30;99.90;;;;;;5045454;28;20434;-74
2021/10/02 04:22:30;;;;;;;8.38;6.20;;;11.30;99.90;;;;;;5047061;28;20357;-74
2021/10/02 04:24:55;;;;;;;8.02;6.03;;;11.30;99.90;;;;;;5041281;28;20025;-74
2021/10/02 04:27:21;;;;;;;9.23;6.28;;;11.30;99.90;;;;;;5022344;28;20025;-73
2021/10/02 04:29:47;;;;;;;7.88;6.78;;;11.30;99.90;;;;;;5045290;28;20029;-74
2021/10/02 04:32:12;;;;;;;8.93;6.68;;;11.40;99.90;;;;;;5028912;28;20024;-75
2021/10/02 04:34:38;;;;;;;8.93;7.18;;;11.40;99.90;;;;;;5015767;28;20045;-75
2021/10/02 04:37:03;;;;;;;9.00;7.18;;;11.40;99.90;;;;;;5029033;28;20029;-74
2021/10/02 04:39:29;;;;;;;8.35;6.75;;;11.40;99.90;;;;;;5033387;28;20026;-74
2021/10/02 04:41:54;;;;;;;9.90;7.03;;;11.40;99.90;;;;;;5034191;28;20455;-74
2021/10/02 04:44:21;;;;;;;8.85;6.63;;;11.30;99.90;;;;;;5026766;28;20610;-74
2021/10/02 04:46:47;;;;;;;8.50;6.78;;;11.20;99.90;;;;;;5017513;28;20112;-74
2021/10/02 04:49:12;;;;;;;7.05;5.97;;;11.20;99.90;;;;;;5044443;28;20116;-74
2021/10/02 04:51:38;;;;;;;8.68;6.45;;;11.20;99.90;;;;;;5032903;28;20080;-73
2021/10/02 04:54:05;;;;;;;10.00;7.00;;;11.20;99.90;;;;;;5032970;28;20049;-73
2021/10/02 04:56:31;;;;;;;32.75;19.30;;;11.20;99.90;;;;;;5032887;28;20103;-74
2021/10/02 04:58:56;;;;;;;36.45;22.30;;;11.20;99.90;;;;;;5015456;28;20434;-74
2021/10/02 05:01:22;;;;;;;51.60;28.38;;;11.10;99.90;;;;;;5034977;28;20097;-74
2021/10/02 05:03:48;;;;;;;72.72;37.70;;;11.20;99.90;;;;;;5043787;28;20037;-75
2021/10/02 05:06:13;;;;;;;90.63;47.42;;;11.20;99.90;;;;;;5015079;28;20105;-73
2021/10/02 05:08:39;;;;;;;81.38;46.38;;;11.30;99.90;;;;;;5023876;28;20025;-74
2021/10/02 05:11:06;;;;;;;100.10;54.60;;;11.20;99.90;;;;;;5036632;28;20029;-74
2021/10/02 05:13:33;;;;;;;193.25;116.55;;;11.30;99.90;;;;;;5041580;28;20027;-75
2021/10/02 05:16:02;;;;;;;171.32;108.82;;;11.40;99.90;;;;;;5039115;28;20475;-74
2021/10/02 05:18:28;;;;;;;74.45;46.30;;;11.40;99.90;;;;;;5052398;28;20403;-74
2021/10/02 05:20:53;;;;;;;16.42;11.98;;;11.50;99.90;;;;;;5018587;28;20029;-74
2021/10/02 05:23:19;;;;;;;16.02;11.05;;;11.50;99.90;;;;;;5014792;28;20032;-74
2021/10/02 05:25:45;;;;;;;80.10;51.10;;;11.60;99.90;;;;;;5032461;28;20025;-74
2021/10/02 05:28:10;;;;;;;40.05;26.10;;;11.60;99.90;;;;;;5014757;28;20688;-74
2021/10/02 05:30:36;;;;;;;74.65;42.60;;;11.60;99.90;;;;;;5032217;28;20029;-75
2021/10/02 05:33:04;;;;;;;88.95;52.88;;;11.50;99.90;;;;;;5033302;28;20108;-74
2021/10/02 05:35:31;;;;;;;41.90;26.73;;;11.60;99.90;;;;;;5015699;28;20022;-74
2021/10/02 05:37:57;;;;;;;24.90;16.75;;;11.60;99.90;;;;;;5031526;28;20505;-74
2021/10/02 05:40:22;;;;;;;14.15;9.63;;;11.60;99.90;;;;;;5032308;28;20025;-75
2021/10/02 05:42:48;;;;;;;9.27;6.88;;;11.70;99.90;;;;;;5042382;28;20029;-75
2021/10/02 05:45:13;;;;;;;9.52;7.32;;;11.80;99.90;;;;;;5062455;28;20078;-74
2021/10/02 05:47:39;;;;;;;10.63;7.53;;;11.80;99.90;;;;;;5032204;28;20044;-74
2021/10/02 05:50:05;;;;;;;7.25;6.38;;;11.80;99.90;;;;;;5032144;28;20434;-74
2021/10/02 05:52:31;;;;;;;8.85;7.32;;;11.80;99.90;;;;;;5023014;28;20123;-74
2021/10/02 05:54:56;;;;;;;10.32;7.30;;;11.80;99.90;;;;;;5051784;28;20427;-74
2021/10/02 05:57:22;;;;;;;10.00;7.38;;;11.90;99.90;;;;;;5033972;28;20028;-74
2021/10/02 05:59:48;;;;;;;11.10;7.57;;;11.90;99.90;;;;;;5036258;28;20071;-74
2021/10/02 06:02:13;;;;;;;9.43;6.95;;;11.80;99.90;;;;;;5031784;28;20108;-75
2021/10/02 06:04:39;;;;;;;9.68;6.60;;;11.80;99.90;;;;;;5013977;28;20120;-74
2021/10/02 06:07:05;;;;;;;9.27;7.35;;;11.80;99.90;;;;;;5014226;28;20026;-74
2021/10/02 06:09:31;;;;;;;11.55;7.53;;;11.80;99.90;;;;;;5045164;28;20044;-75
2021/10/02 06:11:57;;;;;;;10.25;7.88;;;11.90;99.90;;;;;;5022641;28;20023;-74
2021/10/02 06:14:23;;;;;;;14.07;7.32;;;11.90;99.90;;;;;;5033670;28;20083;-73
2021/10/02 06:16:48;;;;;;;10.10;7.07;;;12.00;99.90;;;;;;5051630;28;20079;-74
2021/10/02 06:19:15;;;;;;;9.70;7.65;;;12.00;99.90;;;;;;5031969;28;20025;-74
2021/10/02 06:21:40;;;;;;;7.95;6.85;;;12.00;99.90;;;;;;5040061;28;20706;-74
2021/10/02 06:24:06;;;;;;;9.65;6.85;;;12.00;99.90;;;;;;5036140;28;20029;-74
2021/10/02 06:26:35;;;;;;;9.57;7.70;;;11.90;99.90;;;;;;5022691;28;20027;-74
2021/10/02 06:29:02;;;;;;;8.88;6.43;;;11.80;99.90;;;;;;5018146;28;20120;-76
2021/10/02 06:31:27;;;;;;;10.43;7.28;;;11.80;99.90;;;;;;5031560;28;20424;-74
2021/10/02 06:33:53;;;;;;;9.70;6.97;;;11.80;99.90;;;;;;5044798;28;20112;-74
2021/10/02 06:36:18;;;;;;;9.88;7.35;;;11.80;99.90;;;;;;5031583;28;20109;-74
2021/10/02 06:38:44;;;;;;;8.60;7.28;;;11.90;99.90;;;;;;5031545;28;20053;-75
2021/10/02 06:41:09;;;;;;;11.85;6.85;;;12.00;99.90;;;;;;5013544;28;20092;-75
2021/10/02 06:43:35;;;;;;;9.73;6.93;;;12.10;99.90;;;;;;5033872;28;20488;-74
2021/10/02 06:46:02;;;;;;;13.18;7.63;;;12.10;99.90;;;;;;5042316;28;20080;-75
2021/10/02 06:48:28;;;;;;;11.32;7.97;;;12.20;99.90;;;;;;5049032;28;20021;-75
2021/10/02 06:50:53;;;;;;;10.13;6.90;;;12.30;99.90;;;;;;5035607;28;20027;-75
2021/10/02 06:53:19;;;;;;;12.60;7.40;;;12.40;99.90;;;;;;5048705;28;20036;-75
2021/10/02 06:55:45;;;;;;;7.93;6.30;;;12.50;99.90;;;;;;5035186;28;20030;-75
2021/10/02 06:58:11;;;;;;;9.50;7.68;;;12.60;99.90;;;;;;5030147;28;20538;-74
2021/10/02 07:00:37;;;;;;;10.32;6.60;;;12.70;99.90;;;;;;5042829;28;20373;-75
2021/10/02 07:03:03;;;;;;;8.80;6.35;;;13.00;99.90;;;;;;5041484;28;20022;-75
2021/10/02 07:05:29;;;;;;;9.90;6.30;;;13.20;99.90;;;;;;5046171;28;20037;-74
2021/10/02 07:07:55;;;;;;;9.10;6.28;;;13.40;99.90;;;;;;5030696;28;20032;-74
2021/10/02 07:10:21;;;;;;;7.55;6.00;;;13.70;99.90;;;;;;5017418;28;20029;-75
2021/10/02 07:12:51;;;;;;;10.90;6.38;;;13.80;99.90;;;;;;5034933;28;20038;-74
2021/10/02 07:15:17;;;;;;;10.57;5.90;;;14.00;99.90;;;;;;5044259;28;20059;-75
2021/10/02 07:17:43;;;;;;;10.50;6.00;;;14.10;99.90;;;;;;5038761;28;20061;-75
2021/10/02 07:20:10;;;;;;;9.20;5.38;;;14.20;99.90;;;;;;5034927;28;20083;-75
2021/10/02 07:22:38;;;;;;;7.15;5.75;;;14.10;99.90;;;;;;5034594;28;20022;-74
2021/10/02 07:25:05;;;;;;;8.32;5.25;;;14.10;99.90;;;;;;5044284;28;20052;-74
2021/10/02 07:27:31;;;;;;;5.95;4.93;;;14.20;99.90;;;;;;5038242;28;20033;-74
2021/10/02 07:29:57;;;;;;;8.43;5.03;;;14.20;99.90;;;;;;5044272;28;20033;-74
2021/10/02 07:32:24;;;;;;;7.15;4.82;;;14.40;99.90;;;;;;5038261;28;20037;-74
2021/10/02 07:34:50;;;;;;;7.82;5.45;;;14.40;99.90;;;;;;5016916;28;20510;-74
2021/10/02 07:37:16;;;;;;;11.57;4.93;;;14.40;99.90;;;;;;5034394;28;20543;-74
2021/10/02 07:39:42;;;;;;;8.05;5.28;;;14.40;99.90;;;;;;5034608;28;20220;-75
2021/10/02 07:42:11;;;;;;;7.72;4.93;;;14.40;99.90;;;;;;5034379;28;20103;-74
2021/10/02 07:44:37;;;;;;;8.90;5.68;;;14.50;99.90;;;;;;5027459;28;20059;-74
2021/10/02 07:47:03;;;;;;;8.57;5.35;;;14.70;99.90;;;;;;5022909;28;20056;-75
2021/10/02 07:49:33;;;;;;;6.28;4.80;;;14.80;99.90;;;;;;5043843;28;20057;-74
2021/10/02 07:51:59;;;;;;;7.50;5.50;;;14.90;99.90;;;;;;5020834;28;20467;-75
2021/10/02 07:54:26;;;;;;;6.25;4.85;;;15.00;99.90;;;;;;5042970;28;20244;-74
2021/10/02 07:56:53;;;;;;;6.25;4.18;;;14.90;99.90;;;;;;5047573;28;20045;-75
2021/10/02 07:59:19;;;;;;;5.00;4.00;;;14.90;99.90;;;;;;5026759;28;20029;-74
2021/10/02 08:01:45;;;;;;;8.13;4.50;;;15.00;99.90;;;;;;5035604;28;20527;-74
2021/10/02 08:04:10;;;;;;;6.45;4.25;;;14.90;99.90;;;;;;5027583;28;20040;-74
2021/10/02 08:06:37;;;;;;;8.77;4.30;;;14.90;99.90;;;;;;5022850;28;20037;-74
2021/10/02 08:09:04;;;;;;;5.70;3.72;;;14.70;99.90;;;;;;5042293;28;20028;-74
2021/10/02 08:11:30;;;;;;;6.10;3.53;;;14.70;99.90;;;;;;5015858;28;20032;-74
2021/10/02 08:13:56;;;;;;;6.75;3.63;;;14.70;99.90;;;;;;5033718;28;20029;-74
2021/10/02 08:16:27;;;;;;;7.15;4.03;;;14.70;99.90;;;;;;5033617;28;20447;-74
2021/10/02 08:18:56;;;;;;;6.55;3.88;;;14.80;99.90;;;;;;5028257;28;20079;-75
2021/10/02 08:21:22;;;;;;;5.40;3.72;;;14.80;99.90;;;;;;5040694;28;20040;-75
2021/10/02 08:23:47;;;;;;;5.22;3.65;;;14.90;99.90;;;;;;5053641;28;20040;-74
2021/10/02 08:26:16;;;;;;;5.13;3.70;;;14.90;99.90;;;;;;5034069;28;20026;-75
2021/10/02 08:28:52;;;;;;;5.65;3.60;;;15.10;99.90;;;;;;5028858;28;20021;-74
2021/10/02 08:31:20;;;;;;;7.43;3.77;;;15.10;99.90;;;;;;5033461;28;20053;-74
2021/10/02 08:33:46;;;;;;;4.90;3.33;;;15.20;99.90;;;;;;5029159;28;20633;-74
2021/10/02 08:36:12;;;;;;;4.10;3.22;;;15.30;99.90;;;;;;5024420;28;20063;-75
2021/10/02 08:38:38;;;;;;;9.05;3.60;;;15.20;99.90;;;;;;5038939;28;20045;-74
2021/10/02 08:41:06;;;;;;;5.55;3.05;;;15.20;99.90;;;;;;5042663;28;20140;-76
2021/10/02 08:43:33;;;;;;;4.15;2.75;;;15.30;99.90;;;;;;5040908;28;20368;-76
2021/10/02 08:46:00;;;;;;;5.93;2.70;;;15.40;99.90;;;;;;5044574;28;20021;-76
2021/10/02 08:48:26;;;;;;;4.25;3.03;;;15.40;99.90;;;;;;5029060;28;20025;-76
2021/10/02 08:50:53;;;;;;;5.80;2.88;;;15.40;99.90;;;;;;5041998;28;20032;-77
2021/10/02 08:53:19;;;;;;;3.88;2.50;;;15.50;99.90;;;;;;5022090;28;20030;-76
2021/10/02 08:55:45;;;;;;;5.18;2.28;;;15.40;99.90;;;;;;5044085;28;20022;-75
2021/10/02 08:58:11;;;;;;;5.18;2.45;;;15.40;99.90;;;;;;5046447;28;20612;-75
2021/10/02 09:00:38;;;;;;;5.25;2.72;;;15.30;99.90;;;;;;5041685;28;20029;-76
2021/10/02 09:03:05;;;;;;;3.88;2.30;;;15.40;99.90;;;;;;5039608;28;20379;-75
2021/10/02 09:05:30;;;;;;;3.97;2.53;;;15.60;99.90;;;;;;5052911;28;20713;-76
2021/10/02 09:07:59;;;;;;;5.00;3.10;;;15.70;99.90;;;;;;5039421;28;20109;-76
2021/10/02 09:10:28;;;;;;;5.15;2.78;;;15.80;99.90;;;;;;5025879;28;20033;-76
2021/10/02 09:12:53;;;;;;;3.47;2.40;;;15.80;99.90;;;;;;5017420;28;20026;-75
2021/10/02 09:15:20;;;;;;;5.10;2.97;;;15.80;99.90;;;;;;5043356;28;20025;-74
2021/10/02 09:17:46;;;;;;;5.32;2.80;;;16.00;99.90;;;;;;5035285;28;20029;-75
2021/10/02 09:20:14;;;;;;;4.78;3.30;;;16.10;99.90;;;;;;5043533;28;20036;-76
2021/10/02 09:22:50;;;;;;;4.22;2.97;;;16.20;99.90;;;;;;5045990;28;20029;-76
2021/10/02 09:25:15;;;;;;;3.97;2.50;;;16.20;99.90;;;;;;5025862;28;20048;-76
2021/10/02 09:27:41;;;;;;;3.95;2.40;;;16.20;99.90;;;;;;5039264;28;20582;-76
2021/10/02 09:30:12;;;;;;;4.47;2.33;;;16.40;99.90;;;;;;5041505;28;20061;-76
2021/10/02 09:32:43;;;;;;;3.58;2.40;;;16.40;99.90;;;;;;5045779;28;20030;-77
2021/10/02 09:35:15;;;;;;;3.63;2.22;;;16.40;99.90;;;;;;5044858;28;20395;-76
2021/10/02 09:37:43;;;;;;;5.60;3.13;;;16.40;99.90;;;;;;5038823;28;20020;-76
2021/10/02 09:40:10;;;;;;;10.75;3.42;;;16.40;99.90;;;;;;5039070;28;20056;-76
2021/10/02 09:42:45;;;;;;;7.80;3.17;;;16.40;99.90;;;;;;5039976;28;20458;-77
2021/10/02 09:45:15;;;;;;;5.78;2.70;;;16.50;99.90;;;;;;5049980;28;20506;-76
2021/10/02 09:47:41;;;;;;;5.53;2.72;;;16.60;99.90;;;;;;5023972;28;20071;-76
2021/10/02 09:50:16;;;;;;;4.65;2.72;;;16.60;99.90;;;;;;5038944;28;20039;-76
2021/10/02 09:52:44;;;;;;;9.45;2.90;;;16.60;99.90;;;;;;5023665;28;20574;-76
2021/10/02 09:55:22;;;;;;;4.20;3.25;;;16.80;99.90;;;;;;5045377;28;20032;-75
2021/10/02 09:57:50;;;;;;;7.75;3.47;;;17.00;99.90;;;;;;5044884;28;20029;-76
2021/10/02 10:00:19;;;;;;;5.97;3.03;;;17.00;99.90;;;;;;5038795;28;20024;-76
2021/10/02 10:02:46;;;;;;;6.88;3.05;;;16.90;99.90;;;;;;5038473;28;20032;-76
2021/10/02 10:05:13;;;;;;;4.90;3.40;;;17.00;99.90;;;;;;5027126;28;20052;-76
2021/10/02 10:07:50;;;;;;;6.80;3.20;;;17.00;99.90;;;;;;5027568;28;20402;-76
2021/10/02 10:10:15;;;;;;;4.47;2.67;;;17.10;99.90;;;;;;5040706;28;20025;-74
2021/10/02 10:12:42;;;;;;;4.70;3.00;;;17.30;99.90;;;;;;5038250;28;20108;-76
2021/10/02 10:15:25;;;;;;;6.30;2.85;;;17.20;99.90;;;;;;5025440;28;20372;-75
2021/10/02 10:17:51;;;;;;;9.27;3.17;;;17.30;99.90;;;;;;5045216;28;20021;-77
2021/10/02 10:20:16;;;;;;;3.25;2.40;;;17.30;99.90;;;;;;5042764;28;20035;-76
2021/10/02 10:22:42;;;;;;;3.47;2.53;;;17.30;99.90;;;;;;5037555;28;20025;-75
2021/10/02 10:25:10;;;;;;;4.72;2.55;;;17.50;99.90;;;;;;5041036;28;20021;-75
2021/10/02 10:27:45;;;;;;;4.97;2.45;;;17.50;99.90;;;;;;5045007;28;20037;-75
2021/10/02 10:30:17;;;;;;;3.25;2.40;;;17.30;99.90;;;;;;5026196;28;20025;-76
2021/10/02 10:33:03;;;;;;;3.42;2.55;;;17.60;99.90;;;;;;5031601;28;20384;-76
2021/10/02 10:35:40;;;;;;;4.95;3.08;;;17.50;99.90;;;;;;5044883;28;20021;-76
2021/10/02 10:38:09;;;;;;;7.10;3.10;;;17.60;99.90;;;;;;5042186;28;20036;-76
2021/10/02 10:40:35;;;;;;;5.53;2.70;;;17.90;99.90;;;;;;5037908;28;20021;-76
2021/10/02 10:43:00;;;;;;;5.35;2.83;;;18.00;99.90;;;;;;5040844;28;20428;-76
2021/10/02 10:45:27;;;;;;;8.93;2.97;;;17.90;99.90;;;;;;5035837;28;20059;-74
2021/10/02 10:47:52;;;;;;;5.07;2.80;;;18.00;99.90;;;;;;5040755;28;20419;-76
2021/10/02 10:50:18;;;;;;;3.83;2.40;;;18.00;99.90;;;;;;5045217;28;20026;-76
2021/10/02 10:52:45;;;;;;;5.88;3.00;;;17.90;99.90;;;;;;5042902;28;20029;-76
2021/10/02 10:55:22;;;;;;;6.38;2.78;;;18.00;99.90;;;;;;5021189;28;20025;-76
2021/10/02 10:57:51;;;;;;;4.80;2.88;;;18.00;99.90;;;;;;5039818;28;20112;-74
2021/10/02 11:00:21;;;;;;;4.65;2.60;;;18.10;99.90;;;;;;5032515;28;20022;-75
2021/10/02 11:02:50;;;;;;;4.78;3.13;;;18.20;99.90;;;;;;5027209;28;20495;-76
2021/10/02 11:05:34;;;;;;;7.57;4.80;;;18.20;99.90;;;;;;5026581;28;20522;-77
2021/10/02 11:08:04;;;;;;;5.93;4.50;;;18.40;99.90;;;;;;5048374;28;20029;-77
2021/10/02 11:10:44;;;;;;;5.25;3.47;;;18.50;99.90;;;;;;5024107;28;20391;-77
2021/10/02 11:13:14;;;;;;;6.80;3.33;;;18.50;99.90;;;;;;5027170;28;20505;-76
2021/10/02 11:15:41;;;;;;;4.00;3.03;;;18.50;99.90;;;;;;5043249;28;20033;-76
2021/10/02 11:18:38;;;;;;;12.07;3.60;;;18.50;99.90;;;;;;5019528;28;20120;-76
2021/10/02 11:21:04;;;;;;;5.57;3.20;;;18.60;99.90;;;;;;5037494;28;20025;-76
2021/10/02 11:23:39;;;;;;;4.88;2.88;;;18.70;99.90;;;;;;5023158;28;20479;-76
2021/10/02 11:26:20;;;;;;;7.47;3.47;;;18.70;99.90;;;;;;5018235;28;20021;-76
2021/10/02 11:28:49;;;;;;;4.32;2.92;;;18.80;99.90;;;;;;5038009;28;20033;-76
2021/10/02 11:31:21;;;;;;;7.93;3.05;;;18.80;99.90;;;;;;5038115;28;20028;-76
2021/10/02 11:33:54;;;;;;;4.43;3.30;;;18.90;99.90;;;;;;5020053;28;20026;-77
2021/10/02 11:36:31;;;;;;;4.97;3.05;;;19.20;99.90;;;;;;5045501;28;20549;-76
2021/10/02 11:39:26;;;;;;;4.10;2.75;;;19.10;99.90;;;;;;5030209;28;20029;-76
2021/10/02 11:42:14;;;;;;;4.70;2.92;;;19.30;99.90;;;;;;5048075;28;20479;-76
2021/10/02 11:44:44;;;;;;;3.15;2.40;;;19.60;99.90;;;;;;5016711;28;20117;-76
2021/10/02 11:47:32;;;;;;;3.67;2.92;;;20.10;99.90;;;;;;5039448;28;20055;-76
2021/10/02 11:50:07;;;;;;;4.75;3.20;;;20.50;99.90;;;;;;5052677;28;20032;-76
2021/10/02 11:52:33;;;;;;;4.25;3.00;;;20.90;99.90;;;;;;5044428;28;20032;-76
2021/10/02 11:55:38;;;;;;;4.07;3.10;;;21.00;99.90;;;;;;5023793;28;20083;-77
2021/10/02 11:58:09;;;;;;;5.63;2.83;;;21.00;99.90;;;;;;5040859;28;20043;-76
2021/10/02 12:00:44;;;;;;;8.35;3.60;;;21.70;99.90;;;;;;5045113;28;20101;-76
2021/10/02 12:03:25;;;;;;;3.75;2.97;;;21.70;99.90;;;;;;5029636;28;20034;-77
2021/10/02 12:05:52;;;;;;;3.58;2.42;;;21.20;99.90;;;;;;5048460;28;20032;-76
2021/10/02 12:08:18;;;;;;;4.38;3.05;;;21.50;99.90;;;;;;5040741;28;20475;-77
2021/10/02 12:10:56;;;;;;;6.45;3.30;;;21.30;99.90;;;;;;5023816;28;20032;-77
2021/10/02 12:13:24;;;;;;;5.32;3.08;;;21.30;99.90;;;;;;5041089;28;20021;-77
2021/10/02 12:15:59;;;;;;;4.20;2.45;;;21.50;99.90;;;;;;5040307;28;20014;-76
2021/10/02 12:18:49;;;;;;;4.37;2.70;;;22.10;99.90;;;;;;5045531;28;20507;-76
2021/10/02 12:21:25;;;;;;;3.13;2.60;;;21.60;99.90;;;;;;5047162;28;20083;-77
2021/10/02 12:24:02;;;;;;;5.32;2.55;;;22.40;99.90;;;;;;5029497;28;20545;-76
2021/10/02 12:26:36;;;;;;;3.53;3.00;;;22.40;99.90;;;;;;5023968;28;20075;-76
2021/10/02 12:29:04;;;;;;;5.28;2.88;;;23.00;99.90;;;;;;5040174;28;20028;-77
2021/10/02 12:31:50;;;;;;;3.47;3.15;;;22.90;99.90;;;;;;5044383;28;20018;-76
2021/10/02 12:34:20;;;;;;;4.95;3.00;;;22.80;99.90;;;;;;5029150;28;20415;-77
2021/10/02 12:36:58;;;;;;;5.90;3.00;;;23.70;99.90;;;;;;5046128;28;20020;-77
2021/10/02 12:39:39;;;;;;;5.30;2.80;;;23.40;99.90;;;;;;5041173;28;20025;-77
2021/10/02 12:42:07;;;;;;;3.97;2.72;;;23.80;99.90;;;;;;5040216;28;20025;-76
2021/10/02 12:44:35;;;;;;;4.15;3.25;;;24.10;99.90;;;;;;5025377;28;20484;-76
2021/10/02 12:47:03;;;;;;;4.97;2.58;;;23.70;99.90;;;;;;5046479;28;20077;-77
2021/10/02 12:49:33;;;;;;;7.00;3.38;;;23.50;99.90;;;;;;5044446;28;20033;-77
2021/10/02 12:52:01;;;;;;;4.53;2.88;;;23.60;99.90;;;;;;5048307;28;20029;-77
2021/10/02 12:54:27;;;;;;;5.18;2.65;;;24.30;99.90;;;;;;5045085;28;20053;-74
2021/10/02 12:57:17;;;;;;;5.00;2.80;;;24.30;99.90;;;;;;5039926;28;20060;-77
2021/10/02 12:59:45;;;;;;;3.95;2.75;;;24.30;99.90;;;;;;5022207;28;20047;-77
2021/10/02 13:02:12;;;;;;;6.28;3.08;;;24.60;99.90;;;;;;5044484;28;20018;-77
2021/10/02 13:04:38;;;;;;;5.72;2.92;;;24.70;99.90;;;;;;5046135;28;20040;-77
2021/10/02 13:07:04;;;;;;;4.68;2.67;;;24.80;99.90;;;;;;5024403;28;20029;-77
2021/10/02 13:09:31;;;;;;;5.80;3.10;;;23.60;99.90;;;;;;5039494;28;20092;-75
2021/10/02 13:12:06;;;;;;;6.28;2.67;;;24.10;99.90;;;;;;5043753;28;20033;-75
2021/10/02 13:14:36;;;;;;;6.28;3.47;;;24.20;99.90;;;;;;5028592;28;20152;-75
2021/10/02 13:17:04;;;;;;;5.55;2.97;;;23.30;99.90;;;;;;5025953;28;20033;-74
2021/10/02 13:19:31;;;;;;;7.43;3.55;;;23.40;99.90;;;;;;5039868;28;20429;-75
2021/10/02 13:22:17;;;;;;;4.00;3.60;;;23.60;99.90;;;;;;5041134;28;20079;-77
2021/10/02 13:25:05;;;;;;;4.95;3.30;;;24.40;99.90;;;;;;5019305;28;20379;-76
2021/10/02 13:27:35;;;;;;;7.85;3.78;;;24.90;99.90;;;;;;5046099;28;20033;-75
2021/10/02 13:30:05;;;;;;;4.57;3.50;;;25.70;99.90;;;;;;5025846;28;20426;-77
2021/10/02 13:32:31;;;;;;;5.18;3.40;;;26.20;99.90;;;;;;5038910;28;20078;-77
2021/10/02 13:34:56;;;;;;;4.50;3.58;;;24.50;99.90;;;;;;5041294;28;20035;-77
2021/10/02 13:37:25;;;;;;;4.47;3.35;;;25.00;99.90;;;;;;5045582;28;20030;-77
2021/10/02 13:39:52;;;;;;;6.05;3.58;;;25.60;99.90;;;;;;5043949;28;20021;-77
2021/10/02 13:42:22;;;;;;;4.60;3.35;;;25.10;99.90;;;;;;5029441;28;20399;-76
2021/10/02 13:44:56;;;;;;;5.82;2.97;;;24.60;99.90;;;;;;5032697;28;20109;-76
2021/10/02 13:47:23;;;;;;;5.63;3.45;;;25.10;99.90;;;;;;5039086;28;20114;-77
2021/10/02 13:49:50;;;;;;;5.85;3.42;;;25.20;99.90;;;;;;5038708;28;20029;-77
2021/10/02 13:52:17;;;;;;;4.50;3.80;;;25.40;99.90;;;;;;5029283;28;20021;-74
2021/10/02 13:54:42;;;;;;;6.43;4.13;;;26.30;99.90;;;;;;5038976;28;20489;-76